Time;durP1;ratioP1;P1;durP2;ratioP2;P2;SDS_P1;SDS_P2;PMS_P1;PMS_P2;Temp;Humidity;BMP_temperature;BMP_pressure;BME280_temperature;BME280_humidity;BME280_pressure;Samples;Min_cycle;Max_cycle;Signal;HPM_P1;HPM_P2
2022/02/08 00:01:57;;;;;;;;;;;;;;;24.80;24.79;99676.09;5075133;28;789;-42
2022/02/08 00:04:23;;;;;;;;;;;;;;;24.92;24.77;99675.63;5076412;28;862;-44
2022/02/08 00:06:48;;;;;;;;;;;;;;;24.91;24.68;99673.94;5076514;28;817;-43
2022/02/08 00:09:15;;;;;;;;;;;;;;;24.99;24.38;99679.16;5076340;28;1898;-44
2022/02/08 00:11:40;;;;;;;;;;;;;;;25.06;24.42;99681.91;5075941;28;837;-41
2022/02/08 00:14:06;;;;;;;;;;;;;;;25.01;24.38;99679.81;5072851;28;805;-43
2022/02/08 00:16:31;;;;;;;;;;;;;;;24.93;24.60;99678.09;5074934;28;864;-42
2022/02/08 00:18:56;;;;;;;;;;;;;;;24.97;24.51;99686.63;5076034;28;1282;-42
2022/02/08 00:21:22;;;;;;;;;;;;;;;24.91;24.61;99688.22;5076119;28;920;-43
2022/02/08 00:23:47;;;;;;;;;;;;;;;25.03;24.42;99687.69;5076104;28;781;-42
2022/02/08 00:26:12;;;;;;;;;;;;;;;25.06;24.42;99687.28;5076120;28;805;-42
2022/02/08 00:28:37;;;;;;;;;;;;;;;25.05;24.45;99696.41;5076253;28;1897;-42
2022/02/08 00:31:03;;;;;;;;;;;;;;;24.99;24.39;99689.94;5076131;28;845;-43
2022/02/08 00:33:28;;;;;;;;;;;;;;;25.04;24.42;99705.50;5075894;28;1084;-42
2022/02/08 00:35:53;;;;;;;;;;;;;;;25.07;24.42;99703.25;5076322;28;770;-43
2022/02/08 00:38:19;;;;;;;;;;;;;;;25.13;24.32;99698.94;5076517;28;883;-43
2022/02/08 00:40:47;;;;;;;;;;;;;;;25.02;24.46;99705.72;5072725;28;826;-43
2022/02/08 00:43:13;;;;;;;;;;;;;;;25.06;24.38;99696.22;5075817;28;900;-43
2022/02/08 00:45:51;;;;;;;;;;;;;;;24.94;24.63;99711.22;5075924;28;1035;-42
2022/02/08 00:50:48;;;;;;;;;;;;;;;24.91;24.50;99704.34;5075713;28;1969;-43
2022/02/08 00:53:14;;;;;;;;;;;;;;;24.93;24.59;99717.63;5074833;28;795;-43
2022/02/08 00:55:39;;;;;;;;;;;;;;;24.95;24.60;99718.25;5075854;28;876;-40
2022/02/08 00:58:04;;;;;;;;;;;;;;;24.97;24.52;99729.66;5076121;28;777;-44
2022/02/08 01:00:30;;;;;;;;;;;;;;;25.02;24.50;99732.63;5076072;28;882;-43
2022/02/08 01:02:57;;;;;;;;;;;;;;;25.03;24.45;99745.03;5076204;28;721;-42
2022/02/08 01:05:23;;;;;;;;;;;;;;;25.04;24.42;99738.63;5074385;28;997;-42
2022/02/08 01:07:48;;;;;;;;;;;;;;;25.05;24.32;99736.75;5079775;28;810;-43
2022/02/08 01:10:17;;;;;;;;;;;;;;;25.10;24.37;99755.00;5079363;28;1897;-43
2022/02/08 01:12:43;;;;;;;;;;;;;;;25.06;24.33;99765.31;5080041;28;832;-43
2022/02/08 01:15:09;;;;;;;;;;;;;;;25.04;24.51;99753.94;5079527;28;906;-43
2022/02/08 01:17:35;;;;;;;;;;;;;;;25.02;24.45;99748.75;5079850;28;860;-43
2022/02/08 01:20:07;;;;;;;;;;;;;;;25.10;24.32;99753.16;5074179;28;832;-42
2022/02/08 01:22:36;;;;;;;;;;;;;;;25.13;24.38;99765.38;5078976;28;951;-42
2022/02/08 01:25:01;;;;;;;;;;;;;;;25.03;24.50;99776.47;5075055;28;990;-41
2022/02/08 01:27:30;;;;;;;;;;;;;;;25.10;24.55;99765.78;5079873;28;846;-41
2022/02/08 01:29:59;;;;;;;;;;;;;;;25.08;24.15;99768.66;5079505;28;1913;-42
2022/02/08 01:35:25;;;;;;;;;;;;;;;25.01;24.34;99757.00;5073016;28;831;-41
2022/02/08 01:38:01;;;;;;;;;;;;;;;25.04;24.45;99765.53;5079587;28;812;-42
2022/02/08 01:40:36;;;;;;;;;;;;;;;24.87;24.50;99775.69;5079336;28;829;-43
2022/02/08 01:48:13;;;;;;;;;;;;;;;24.99;24.30;99764.44;5079122;28;897;-42
2022/02/08 01:50:39;;;;;;;;;;;;;;;24.99;24.32;99753.69;5075811;28;1971;-42
2022/02/08 01:53:04;;;;;;;;;;;;;;;25.01;24.43;99755.16;5078971;28;829;-42
2022/02/08 01:55:30;;;;;;;;;;;;;;;25.02;24.28;99762.22;5078473;28;827;-42
2022/02/08 01:57:55;;;;;;;;;;;;;;;24.98;24.53;99757.38;5077669;28;843;-42
2022/02/08 02:00:21;;;;;;;;;;;;;;;24.96;24.46;99762.97;5078189;28;832;-43
2022/02/08 02:02:46;;;;;;;;;;;;;;;24.97;24.36;99763.81;5079127;28;791;-43
2022/02/08 02:05:11;;;;;;;;;;;;;;;25.01;24.22;99770.44;5078669;28;829;-42
2022/02/08 02:07:37;;;;;;;;;;;;;;;25.07;24.29;99778.59;5078643;28;853;-42
2022/02/08 02:10:02;;;;;;;;;;;;;;;25.95;23.49;99785.69;5078611;28;2229;-43
2022/02/08 02:12:28;;;;;;;;;;;;;;;25.61;23.58;99799.72;5078802;28;853;-42
2022/02/08 02:14:55;;;;;;;;;;;;;;;25.37;23.88;99804.53;5078833;28;809;-43
2022/02/08 02:17:20;;;;;;;;;;;;;;;25.09;24.33;99813.38;5072213;28;1460;-44
2022/02/08 02:19:46;;;;;;;;;;;;;;;24.90;24.46;99812.13;5077409;28;977;-42
2022/02/08 02:22:11;;;;;;;;;;;;;;;24.74;24.58;99823.97;5078366;28;796;-42
2022/02/08 02:24:36;;;;;;;;;;;;;;;24.75;24.56;99821.09;5078680;28;886;-42
2022/02/08 02:27:03;;;;;;;;;;;;;;;24.84;24.38;99827.16;5078099;28;970;-43
2022/02/08 02:29:30;;;;;;;;;;;;;;;24.88;24.44;99825.78;5078413;28;1894;-41
2022/02/08 02:31:55;;;;;;;;;;;;;;;24.80;24.57;99818.66;5078038;28;1024;-43
2022/02/08 02:34:20;;;;;;;;;;;;;;;24.84;24.39;99824.47;5071339;28;894;-42
2022/02/08 02:36:46;;;;;;;;;;;;;;;24.88;24.35;99831.16;5076729;28;760;-43
2022/02/08 02:39:11;;;;;;;;;;;;;;;24.75;24.60;99825.63;5077787;28;763;-42
2022/02/08 02:41:37;;;;;;;;;;;;;;;24.75;24.58;99826.47;5077918;28;1072;-43
2022/02/08 02:44:04;;;;;;;;;;;;;;;24.73;24.55;99828.50;5078093;28;828;-43
2022/02/08 02:46:29;;;;;;;;;;;;;;;25.01;24.27;99833.16;5078602;28;825;-43
2022/02/08 02:48:54;;;;;;;;;;;;;;;25.81;23.51;99831.38;5068936;28;1910;-43
2022/02/08 02:51:23;;;;;;;;;;;;;;;26.25;22.52;99823.16;5077961;28;839;-43
2022/02/08 02:53:48;;;;;;;;;;;;;;;26.69;21.99;99826.50;5077622;28;994;-42
2022/02/08 02:56:14;;;;;;;;;;;;;;;27.04;21.69;99825.56;5077648;28;833;-42
2022/02/08 02:58:39;;;;;;;;;;;;;;;27.01;21.83;99810.59;5077819;28;781;-43
2022/02/08 03:19:49;;;;;;;;;;;;;;;25.02;23.78;99778.34;5070832;28;834;-43
2022/02/08 03:22:15;;;;;;;;;;;;;;;25.36;23.35;99784.00;5077354;28;1489;-43
2022/02/08 03:24:40;;;;;;;;;;;;;;;25.68;22.98;99783.66;5077242;28;761;-42
2022/02/08 03:27:05;;;;;;;;;;;;;;;25.90;22.84;99768.25;5075796;28;902;-42
2022/02/08 03:29:31;;;;;;;;;;;;;;;26.09;22.42;99771.22;5076919;28;1957;-43
2022/02/08 03:31:56;;;;;;;;;;;;;;;26.38;22.17;99784.66;5077218;28;1198;-42
2022/02/08 03:34:21;;;;;;;;;;;;;;;26.34;22.15;99786.94;5072724;28;853;-44
2022/02/08 03:36:47;;;;;;;;;;;;;;;26.75;21.46;99784.38;5076910;28;912;-43
2022/02/08 03:39:19;;;;;;;;;;;;;;;26.61;21.56;99783.50;5072459;28;861;-43
2022/02/08 03:41:48;;;;;;;;;;;;;;;26.58;21.61;99786.59;5077452;28;813;-43
2022/02/08 03:44:17;;;;;;;;;;;;;;;26.47;21.58;99794.25;5077339;28;816;-42
2022/02/08 03:46:43;;;;;;;;;;;;;;;26.50;21.71;99809.19;5076770;28;818;-43
2022/02/08 03:49:08;;;;;;;;;;;;;;;26.51;21.38;99800.06;5076963;28;1909;-43
2022/02/08 03:51:47;;;;;;;;;;;;;;;26.60;21.39;99816.91;5075999;28;839;-42
2022/02/08 03:54:12;;;;;;;;;;;;;;;26.77;21.16;99820.06;5076786;28;852;-42
2022/02/08 03:56:38;;;;;;;;;;;;;;;26.48;21.31;99813.94;5077103;28;813;-42
2022/02/08 03:59:04;;;;;;;;;;;;;;;26.71;21.13;99829.81;5076517;28;835;-43
2022/02/08 04:02:01;;;;;;;;;;;;;;;26.84;20.83;99823.59;5076516;28;837;-44
2022/02/08 04:06:42;;;;;;;;;;;;;;;26.84;21.07;99828.19;5076504;28;826;-43
2022/02/08 04:09:08;;;;;;;;;;;;;;;26.83;20.87;99845.41;5075965;28;1907;-44
2022/02/08 04:11:38;;;;;;;;;;;;;;;26.81;20.76;99842.09;5076968;28;820;-43
2022/02/08 04:15:21;;;;;;;;;;;;;;;26.96;20.57;99842.72;5076655;28;776;-43
2022/02/08 04:17:09;;;;;;;;;;;;;;;27.04;20.74;99847.16;5062051;28;1463;-43
2022/02/08 04:19:46;;;;;;;;;;;;;;;26.98;20.47;99843.38;5070512;28;866;-42
2022/02/08 04:33:41;;;;;;;;;;;;;;;27.19;20.59;99863.19;5075361;28;1182;-43
2022/02/08 04:36:22;;;;;;;;;;;;;;;27.32;20.28;99869.63;5075585;28;1457;-42
2022/02/08 04:44:21;;;;;;;;;;;;;;;26.01;20.43;99861.16;5070989;28;804;-42
2022/02/08 04:46:58;;;;;;;;;;;;;;;26.90;19.78;99840.84;5075930;28;1034;-42
2022/02/08 04:49:24;;;;;;;;;;;;;;;27.04;19.70;99849.88;5073803;28;1902;-43
2022/02/08 04:51:57;;;;;;;;;;;;;;;27.22;19.62;99843.88;5075729;28;734;-41
2022/02/08 04:54:33;;;;;;;;;;;;;;;27.30;19.48;99837.44;5076252;28;753;-42
2022/02/08 04:57:24;;;;;;;;;;;;;;;27.26;19.75;99855.06;5074297;28;835;-42
2022/02/08 05:44:46;;;;;;;;;;;;;;;27.24;19.06;99908.47;5075451;28;814;-42
2022/02/08 05:47:12;;;;;;;;;;;;;;;27.53;19.06;99927.22;5069347;28;818;-43
2022/02/08 05:49:43;;;;;;;;;;;;;;;27.75;18.73;99939.50;5074484;28;1981;-42
2022/02/08 05:54:36;;;;;;;;;;;;;;;28.36;18.21;99950.31;5078930;28;744;-44
2022/02/08 05:57:01;;;;;;;;;;;;;;;28.64;17.80;99952.94;5078948;28;845;-43
2022/02/08 05:59:27;;;;;;;;;;;;;;;28.82;17.62;99979.31;5076570;28;892;-43
2022/02/08 06:01:52;;;;;;;;;;;;;;;28.56;17.97;99976.47;5079127;28;788;-42
2022/02/08 06:04:17;;;;;;;;;;;;;;;28.73;17.80;99976.00;5078484;28;852;-41
2022/02/08 06:06:43;;;;;;;;;;;;;;;28.55;17.90;99993.75;5079011;28;750;-43
2022/02/08 06:09:08;;;;;;;;;;;;;;;27.40;19.15;99993.66;5078136;28;1902;-41
2022/02/08 06:11:36;;;;;;;;;;;;;;;27.39;18.97;99983.91;5078285;28;808;-43
2022/02/08 06:14:03;;;;;;;;;;;;;;;27.45;19.37;99985.78;5078748;28;777;-43
2022/02/08 06:16:28;;;;;;;;;;;;;;;27.46;19.36;99987.44;5078675;28;841;-42
2022/02/08 06:18:54;;;;;;;;;;;;;;;27.57;19.26;99975.22;5074859;28;863;-42
2022/02/08 06:21:19;;;;;;;;;;;;;;;27.66;18.91;99978.53;5078739;28;936;-41
2022/02/08 06:23:44;;;;;;;;;;;;;;;27.68;19.13;99981.91;5078233;28;820;-41
2022/02/08 06:26:11;;;;;;;;;;;;;;;27.67;18.88;99984.78;5077284;28;906;-42
2022/02/08 06:28:37;;;;;;;;;;;;;;;27.74;18.91;99989.19;5078298;28;1957;-41
2022/02/08 06:31:02;;;;;;;;;;;;;;;27.74;18.74;100002.69;5071705;28;1316;-42
2022/02/08 06:33:27;;;;;;;;;;;;;;;27.71;18.62;100003.09;5078210;28;1032;-42
2022/02/08 06:35:52;;;;;;;;;;;;;;;27.93;18.70;100016.44;5077824;28;751;-41
2022/02/08 06:38:19;;;;;;;;;;;;;;;28.06;18.57;100009.38;5074101;28;927;-42
2022/02/08 06:40:48;;;;;;;;;;;;;;;28.07;18.54;100011.03;5072469;28;1234;-36
2022/02/08 06:43:14;;;;;;;;;;;;;;;27.92;18.49;100022.06;5072145;28;1356;-35
2022/02/08 06:45:40;;;;;;;;;;;;;;;27.95;18.36;100030.59;5078281;28;898;-35
2022/02/08 06:48:07;;;;;;;;;;;;;;;27.95;18.13;100036.00;5077811;28;1648;-35
2022/02/08 06:50:32;;;;;;;;;;;;;;;27.75;18.73;100042.19;5078679;28;1902;-36
2022/02/08 06:52:57;;;;;;;;;;;;;;;27.52;18.85;100034.41;5071653;28;1279;-35
2022/02/08 06:55:25;;;;;;;;;;;;;;;27.39;19.32;100046.81;5075906;28;1100;-33
2022/02/08 06:57:58;;;;;;;;;;;;;;;27.45;19.54;100042.50;5071904;28;1492;-34
2022/02/08 07:00:29;;;;;;;;;;;;;;;27.05;19.74;100062.06;5077154;28;1542;-37
2022/02/08 07:02:54;;;;;;;;;;;;;;;26.94;19.79;100057.19;5069282;28;1439;-36
2022/02/08 07:05:19;;;;;;;;;;;;;;;26.80;20.28;100051.72;5071494;28;1455;-35
2022/02/08 07:07:45;;;;;;;;;;;;;;;26.85;20.17;100064.59;5070629;28;1221;-41
2022/02/08 07:10:10;;;;;;;;;;;;;;;26.95;20.01;100070.50;5071407;28;1914;-39
2022/02/08 07:12:35;;;;;;;;;;;;;;;27.10;20.02;100073.09;5069865;28;1316;-41
2022/02/08 07:15:07;;;;;;;;;;;;;;;26.83;20.23;100072.91;5065444;28;1184;-40
2022/02/08 07:17:33;;;;;;;;;;;;;;;26.75;20.27;100068.50;5068649;28;1115;-41
2022/02/08 07:19:58;;;;;;;;;;;;;;;26.67;20.50;100074.03;5067455;28;1369;-40
2022/02/08 07:22:23;;;;;;;;;;;;;;;26.69;20.44;100069.28;5074754;28;1566;-40
2022/02/08 07:24:49;;;;;;;;;;;;;;;26.56;20.51;100056.53;5067816;28;1535;-40
2022/02/08 07:27:14;;;;;;;;;;;;;;;26.59;20.50;100080.41;5076342;28;1305;-40
2022/02/08 07:29:39;;;;;;;;;;;;;;;26.73;20.57;100062.47;5070338;28;1914;-39
2022/02/08 07:32:06;;;;;;;;;;;;;;;26.72;20.93;100054.56;5072738;28;1447;-40
2022/02/08 07:37:10;;;;;;;;;;;;;;;26.86;20.78;100064.41;5072533;28;1361;-40
2022/02/08 07:39:46;;;;;;;;;;;;;;;26.76;20.98;100077.41;5072408;28;1447;-41
2022/02/08 07:42:11;;;;;;;;;;;;;;;26.61;20.89;100074.84;5069944;28;1198;-41
2022/02/08 07:44:37;;;;;;;;;;;;;;;26.74;21.13;100072.22;5068779;28;1394;-41
2022/02/08 07:47:02;;;;;;;;;;;;;;;26.74;20.64;100072.22;5067339;28;1242;-39
2022/02/08 07:49:28;;;;;;;;;;;;;;;26.62;21.17;100071.09;5071586;28;1926;-38
2022/02/08 07:51:53;;;;;;;;;;;;;;;26.45;20.98;100068.69;5069214;28;1285;-38
2022/02/08 07:54:18;;;;;;;;;;;;;;;26.47;21.30;100071.19;5064786;28;1420;-40
2022/02/08 07:56:44;;;;;;;;;;;;;;;26.47;21.28;100076.59;5073221;28;1788;-41
2022/02/08 07:59:09;;;;;;;;;;;;;;;26.40;21.56;100071.97;5069799;28;1369;-41
2022/02/08 08:01:34;;;;;;;;;;;;;;;26.58;21.49;100059.84;5063620;28;1297;-42
2022/02/08 08:03:59;;;;;;;;;;;;;;;26.71;20.89;100067.22;5075007;28;1365;-41
2022/02/08 08:06:25;;;;;;;;;;;;;;;26.61;21.09;100082.94;5074294;28;1219;-39
2022/02/08 08:08:51;;;;;;;;;;;;;;;26.28;20.70;100095.91;5071691;28;1959;-41
2022/02/08 08:11:21;;;;;;;;;;;;;;;25.66;21.02;100077.44;5073044;28;1583;-41
2022/02/08 08:14:01;;;;;;;;;;;;;;;25.98;20.88;100103.25;5073192;28;1138;-41
2022/02/08 08:21:26;;;;;;;;;;;;;;;25.65;19.81;100093.78;5078499;28;1459;-41
2022/02/08 08:23:51;;;;;;;;;;;;;;;25.97;20.67;100117.78;5070533;28;1345;-41
2022/02/08 08:29:19;;;;;;;;;;;;;;;26.28;20.69;100114.78;5068123;28;1897;-39
2022/02/08 08:31:45;;;;;;;;;;;;;;;26.37;20.61;100104.72;5073999;28;1487;-41
2022/02/08 08:34:10;;;;;;;;;;;;;;;26.43;20.67;100131.91;5071058;28;1182;-40
2022/02/08 08:36:36;;;;;;;;;;;;;;;26.42;21.01;100101.44;5070958;28;1190;-41
2022/02/08 08:39:03;;;;;;;;;;;;;;;26.44;21.13;100104.78;5074197;28;1463;-40
2022/02/08 08:41:45;;;;;;;;;;;;;;;26.49;21.05;100129.28;5074229;28;1233;-41
2022/02/08 08:51:57;;;;;;;;;;;;;;;26.38;20.72;100111.78;5067723;28;1265;-41
2022/02/08 08:54:22;;;;;;;;;;;;;;;26.47;21.45;100127.81;5073935;28;1309;-40
2022/02/08 08:56:49;;;;;;;;;;;;;;;26.44;20.92;100147.94;5074645;28;1163;-40
2022/02/08 08:59:14;;;;;;;;;;;;;;;26.49;21.18;100155.44;5067534;28;1483;-42
2022/02/08 09:01:40;;;;;;;;;;;;;;;26.45;21.21;100149.59;5073411;28;1229;-42
2022/02/08 09:04:05;;;;;;;;;;;;;;;26.33;21.03;100183.47;5070111;28;1518;-42
2022/02/08 09:06:33;;;;;;;;;;;;;;;26.23;21.01;100176.50;5068763;28;1340;-41
2022/02/08 09:08:58;;;;;;;;;;;;;;;26.23;21.22;100173.81;5072093;28;1952;-41
2022/02/08 09:14:02;;;;;;;;;;;;;;;26.19;21.30;100234.56;5070134;28;1198;-40
2022/02/08 09:19:29;;;;;;;;;;;;;;;26.22;21.40;100228.78;5068674;28;1285;-42
2022/02/08 09:30:05;;;;;;;;;;;;;;;26.12;21.67;100250.66;5075275;28;1963;-42
2022/02/08 09:35:15;;;;;;;;;;;;;;;25.14;20.27;100219.19;5075399;28;1459;-42
2022/02/08 09:37:40;;;;;;;;;;;;;;;24.18;19.90;100234.63;5067763;28;1471;-41
2022/02/08 09:40:06;;;;;;;;;;;;;;;23.59;20.33;100212.47;5071737;28;1491;-42
2022/02/08 09:42:32;;;;;;;;;;;;;;;23.06;19.96;100210.19;5075405;28;1626;-41
2022/02/08 09:44:58;;;;;;;;;;;;;;;23.15;21.62;100208.34;5078602;28;1333;-42
2022/02/08 09:47:33;;;;;;;;;;;;;;;23.89;21.59;100226.16;5074570;28;1333;-42
2022/02/08 09:50:06;;;;;;;;;;;;;;;24.23;21.76;100180.34;5071491;28;1909;-42
2022/02/08 09:52:31;;;;;;;;;;;;;;;24.14;22.23;100217.16;5075286;28;1210;-42
2022/02/08 09:54:57;;;;;;;;;;;;;;;24.18;22.34;100219.34;5077557;28;1468;-42
2022/02/08 09:57:22;;;;;;;;;;;;;;;24.71;21.82;100199.00;5077500;28;1488;-44
2022/02/08 09:59:48;;;;;;;;;;;;;;;24.78;21.63;100189.19;5077740;28;1534;-43
2022/02/08 10:02:16;;;;;;;;;;;;;;;25.01;21.55;100217.09;5075640;28;1398;-41
2022/02/08 10:04:42;;;;;;;;;;;;;;;24.93;21.69;100224.25;5070967;28;1142;-42
2022/02/08 10:07:11;;;;;;;;;;;;;;;24.99;21.52;100193.06;5075114;28;1208;-43
2022/02/08 10:09:36;;;;;;;;;;;;;;;25.15;21.36;100210.94;5078394;28;1970;-43
2022/02/08 10:12:01;;;;;;;;;;;;;;;24.98;21.50;100217.47;5077996;28;1400;-42
2022/02/08 10:14:40;;;;;;;;;;;;;;;24.74;21.35;100219.34;5076946;28;1372;-42
2022/02/08 10:22:19;;;;;;;;;;;;;;;24.70;22.21;100217.00;5071048;28;1385;-43
2022/02/08 10:24:50;;;;;;;;;;;;;;;24.75;21.89;100213.78;5078235;28;1499;-42
2022/02/08 10:27:29;;;;;;;;;;;;;;;25.04;22.09;100228.34;5071938;28;1267;-39
2022/02/08 10:30:13;;;;;;;;;;;;;;;25.56;22.54;100222.28;5068197;28;1902;-40
2022/02/08 10:38:14;;;;;;;;;;;;;;;25.52;21.71;100235.31;5067479;28;1183;-42
2022/02/08 10:40:40;;;;;;;;;;;;;;;25.00;22.06;100228.91;5068206;28;1389;-42
2022/02/08 10:43:09;;;;;;;;;;;;;;;24.91;22.24;100257.72;5077523;28;1515;-41
2022/02/08 10:45:36;;;;;;;;;;;;;;;25.22;21.57;100235.28;5076462;28;1499;-42
2022/02/08 10:48:04;;;;;;;;;;;;;;;25.36;21.47;100222.84;5069258;28;1420;-38
2022/02/08 10:50:31;;;;;;;;;;;;;;;25.56;21.19;100271.63;5069220;28;1918;-38
2022/02/08 10:52:58;;;;;;;;;;;;;;;25.51;20.98;100260.56;5069498;28;1170;-38
2022/02/08 10:56:09;;;;;;;;;;;;;;;25.49;20.99;100353.34;5073794;28;1126;-38
2022/02/08 11:01:07;;;;;;;;;;;;;;;25.68;20.56;100290.88;5073516;28;1170;-38
2022/02/08 11:03:45;;;;;;;;;;;;;;;25.72;20.56;100295.91;5072470;28;1296;-38
2022/02/08 11:20:29;;;;;;;;;;;;;;;25.87;20.54;100294.06;5047459;28;1328;-36
2022/02/08 11:27:59;;;;;;;;;;;;;;;25.90;20.91;100293.69;5068112;28;1702;-39
2022/02/08 11:30:28;;;;;;;;;;;;;;;25.82;20.79;100284.84;5071174;28;1902;-38
2022/02/08 11:44:05;;;;;;;;;;;;;;;26.01;20.47;100245.72;5072012;28;1423;-38
2022/02/08 11:54:19;;;;;;;;;;;;;;;26.04;20.04;100242.66;5072799;28;1470;-39
2022/02/08 11:57:14;;;;;;;;;;;;;;;26.19;20.02;100253.41;5070063;28;1268;-36
2022/02/08 11:59:46;;;;;;;;;;;;;;;26.14;19.87;100264.75;5070714;28;1484;-38
2022/02/08 12:04:56;;;;;;;;;;;;;;;26.00;20.40;100282.63;5073177;28;1241;-38
2022/02/08 12:07:22;;;;;;;;;;;;;;;26.22;20.25;100300.72;5069454;28;1594;-38
2022/02/08 12:10:02;;;;;;;;;;;;;;;25.65;16.97;100291.25;5070194;28;1895;-41
2022/02/08 12:30:36;;;;;;;;;;;;;;;24.14;18.12;100373.03;5075199;28;1902;-38
2022/02/08 12:59:47;;;;;;;;;;;;;;;25.95;21.01;100414.41;5069239;28;1205;-39
2022/02/08 13:02:34;;;;;;;;;;;;;;;25.91;20.99;100408.53;5075128;28;1280;-40
2022/02/08 14:11:10;;;;;;;;;;;;;;;26.49;20.36;100558.13;5076806;28;1910;-39
2022/02/08 14:19:06;;;;;;;;;;;;;;;26.59;21.63;100589.44;5070660;28;1020;-40
2022/02/08 14:24:19;;;;;;;;;;;;;;;26.62;22.09;100608.78;5071461;28;1253;-40
2022/02/08 14:32:18;;;;;;;;;;;;;;;26.42;21.13;100608.47;5076118;28;1304;-41
2022/02/08 14:35:10;;;;;;;;;;;;;;;26.73;21.99;100625.53;5069945;28;1364;-40
2022/02/08 15:10:23;;;;;;;;;;;;;;;25.91;19.48;100710.34;5070680;28;1906;-39
2022/02/08 15:12:58;;;;;;;;;;;;;;;25.97;20.74;100725.00;5075561;28;1167;-39
2022/02/08 15:17:57;;;;;;;;;;;;;;;25.41;20.69;100739.28;5077149;28;824;-40
2022/02/08 15:20:24;;;;;;;;;;;;;;;25.53;21.13;100748.69;5072420;28;1092;-40
2022/02/08 15:22:49;;;;;;;;;;;;;;;25.60;21.08;100748.84;5072555;28;1087;-40
2022/02/08 15:25:15;;;;;;;;;;;;;;;28.86;17.57;100754.84;5075989;28;1256;-42
2022/02/08 15:27:41;;;;;;;;;;;;;;;26.75;19.66;100755.72;5072715;28;1221;-40
2022/02/08 15:30:07;;;;;;;;;;;;;;;26.12;20.23;100759.28;5074506;28;1909;-42
2022/02/08 15:32:35;;;;;;;;;;;;;;;26.09;20.39;100765.03;5074604;28;1201;-41
2022/02/08 15:35:00;;;;;;;;;;;;;;;27.22;19.33;100767.34;5067863;28;1177;-42
2022/02/08 15:37:30;;;;;;;;;;;;;;;27.54;19.14;100758.25;5076870;28;1192;-42
2022/02/08 15:39:55;;;;;;;;;;;;;;;27.98;18.63;100760.13;5070484;28;1079;-43
2022/02/08 15:42:28;;;;;;;;;;;;;;;28.17;18.42;100774.06;5076755;28;1024;-43
2022/02/08 15:44:55;;;;;;;;;;;;;;;28.36;18.00;100769.94;5076497;28;1118;-43
2022/02/08 15:47:21;;;;;;;;;;;;;;;28.41;17.91;100769.38;5074951;28;1185;-43
2022/02/08 15:49:56;;;;;;;;;;;;;;;28.20;18.00;100772.84;5070045;28;1973;-43
2022/02/08 15:55:12;;;;;;;;;;;;;;;28.45;17.76;100778.78;5075695;28;1321;-43
2022/02/08 16:05:50;;;;;;;;;;;;;;;28.68;17.65;100791.31;5075075;28;1067;-43
2022/02/08 16:08:42;;;;;;;;;;;;;;;28.72;17.48;100803.44;5074536;28;1067;-43
2022/02/08 16:11:21;;;;;;;;;;;;;;;28.78;17.58;100807.22;5075189;28;2008;-43
2022/02/08 16:14:07;;;;;;;;;;;;;;;28.72;17.67;100810.72;5072441;28;1308;-44
2022/02/08 16:19:08;;;;;;;;;;;;;;;28.96;17.26;100819.50;5078917;28;1218;-43
2022/02/08 16:58:34;;;;;;;;;;;;;;;29.24;17.29;100847.66;5076215;28;1364;-40
2022/02/08 17:01:08;;;;;;;;;;;;;;;29.13;17.43;100855.28;5083336;28;1534;-42
2022/02/08 17:03:36;;;;;;;;;;;;;;;29.10;16.87;100850.25;5077423;28;1400;-42
2022/02/08 17:06:02;;;;;;;;;;;;;;;29.24;16.58;100848.50;5079894;28;1344;-43
2022/02/08 17:08:27;;;;;;;;;;;;;;;29.30;16.72;100846.88;5080604;28;1296;-43
2022/02/08 17:10:56;;;;;;;;;;;;;;;29.25;16.90;100846.63;5079146;28;1961;-44
2022/02/08 17:44:56;;;;;;;;;;;;;;;29.31;16.71;100917.13;5075605;28;796;-43
2022/02/08 17:46:10;;;;;;;;;;;;;;;29.32;16.92;100967.59;5079312;28;1336;-42
2022/02/08 17:48:36;;;;;;;;;;;;;;;29.38;16.89;100978.69;5077886;28;1232;-45
2022/02/08 17:51:02;;;;;;;;;;;;;;;29.34;17.36;100981.75;5077927;28;2022;-44
2022/02/08 17:53:27;;;;;;;;;;;;;;;29.30;17.15;100979.63;5079342;28;1411;-45
2022/02/08 17:55:59;;;;;;;;;;;;;;;29.30;17.41;100993.19;5078571;28;1365;-45
2022/02/08 17:58:24;;;;;;;;;;;;;;;29.39;17.17;100996.63;5081837;28;1258;-45
2022/02/08 18:00:50;;;;;;;;;;;;;;;29.39;17.24;100993.91;5075582;28;1178;-46
2022/02/08 18:03:16;;;;;;;;;;;;;;;29.29;17.36;101003.19;5077603;28;1233;-45
2022/02/08 18:05:44;;;;;;;;;;;;;;;29.35;17.38;100998.88;5078219;28;1259;-42
2022/02/08 18:08:13;;;;;;;;;;;;;;;29.29;17.63;100991.50;5079911;28;1187;-43
2022/02/08 18:10:39;;;;;;;;;;;;;;;29.37;17.32;100991.41;5080949;28;1957;-45
2022/02/08 18:13:09;;;;;;;;;;;;;;;29.30;17.39;100994.03;5081335;28;1330;-45
2022/02/08 18:15:35;;;;;;;;;;;;;;;29.31;17.41;101003.81;5076094;28;1245;-41
2022/02/08 18:18:06;;;;;;;;;;;;;;;29.29;17.35;100999.66;5079418;28;1190;-43
2022/02/08 18:20:47;;;;;;;;;;;;;;;29.24;17.37;101002.09;5072267;28;910;-43
2022/02/08 19:16:37;;;;;;;;;;;;;;;29.72;17.62;101133.56;5077689;28;818;-43
2022/02/08 19:23:54;;;;;;;;;;;;;;;29.72;17.86;101128.97;5073414;28;747;-44
2022/02/08 19:26:21;;;;;;;;;;;;;;;29.91;17.66;101129.41;5076557;28;1124;-44
2022/02/08 19:28:47;;;;;;;;;;;;;;;30.05;17.62;101127.63;5077619;28;960;-43
2022/02/08 19:31:13;;;;;;;;;;;;;;;30.20;17.55;101130.31;5078384;28;1977;-42
2022/02/08 19:33:38;;;;;;;;;;;;;;;30.29;17.54;101131.03;5078530;28;842;-43
2022/02/08 19:36:04;;;;;;;;;;;;;;;30.39;17.45;101128.81;5075942;28;884;-43
2022/02/08 19:38:30;;;;;;;;;;;;;;;30.84;16.76;101133.13;5075892;28;861;-43
2022/02/08 19:40:55;;;;;;;;;;;;;;;30.82;16.80;101134.34;5077527;28;1429;-43
2022/02/08 19:43:21;;;;;;;;;;;;;;;29.74;18.11;101135.06;5077429;28;932;-44
2022/02/08 19:45:46;;;;;;;;;;;;;;;29.43;17.67;101126.13;5077042;28;817;-44
2022/02/08 19:48:12;;;;;;;;;;;;;;;29.21;17.60;101125.22;5076156;28;880;-44
2022/02/08 19:50:40;;;;;;;;;;;;;;;28.96;17.42;101130.91;5073304;28;1955;-43
2022/02/08 19:53:07;;;;;;;;;;;;;;;28.92;17.43;101127.72;5079202;28;1365;-44
2022/02/08 19:58:00;;;;;;;;;;;;;;;29.16;17.51;101136.59;5076956;28;738;-43
2022/02/08 20:00:31;;;;;;;;;;;;;;;29.13;17.38;101136.16;5077024;28;880;-44
2022/02/08 20:02:59;;;;;;;;;;;;;;;29.17;17.40;101146.44;5072401;28;783;-44
2022/02/08 20:05:29;;;;;;;;;;;;;;;29.18;17.48;101137.25;5073594;28;1045;-43
2022/02/08 20:07:55;;;;;;;;;;;;;;;29.26;17.66;101138.22;5077040;28;849;-44
2022/02/08 20:10:20;;;;;;;;;;;;;;;29.40;17.21;101137.34;5076484;28;1898;-43
2022/02/08 20:12:45;;;;;;;;;;;;;;;29.37;17.21;101143.13;5077175;28;872;-43
2022/02/08 20:15:11;;;;;;;;;;;;;;;29.39;17.19;101146.50;5076924;28;856;-43
2022/02/08 20:17:36;;;;;;;;;;;;;;;29.47;17.38;101145.56;5076765;28;928;-44
2022/02/08 20:20:08;;;;;;;;;;;;;;;29.45;17.09;101140.31;5075954;28;1017;-43
2022/02/08 20:22:34;;;;;;;;;;;;;;;29.60;16.78;101149.47;5076903;28;774;-43
2022/02/08 20:25:03;;;;;;;;;;;;;;;29.56;17.18;101149.00;5076866;28;821;-44
2022/02/08 20:30:13;;;;;;;;;;;;;;;29.51;17.16;101151.44;5074686;28;1953;-43
2022/02/08 20:32:38;;;;;;;;;;;;;;;29.61;17.04;101152.03;5075583;28;1532;-43
2022/02/08 20:35:03;;;;;;;;;;;;;;;29.64;17.02;101156.22;5070520;28;1202;-43
2022/02/08 20:37:29;;;;;;;;;;;;;;;29.83;16.81;101157.44;5078472;28;1462;-42
2022/02/08 20:39:55;;;;;;;;;;;;;;;30.02;16.78;101155.16;5079764;28;821;-43
2022/02/08 20:42:24;;;;;;;;;;;;;;;30.15;16.85;101144.44;5075970;28;1498;-43
2022/02/08 20:44:50;;;;;;;;;;;;;;;30.29;16.52;101147.31;5078268;28;1419;-43
2022/02/08 20:47:25;;;;;;;;;;;;;;;30.40;16.60;101146.78;5081255;28;1348;-43
2022/02/08 20:49:57;;;;;;;;;;;;;;;30.63;16.54;101148.41;5079057;28;1909;-42
2022/02/08 20:52:22;;;;;;;;;;;;;;;30.73;16.56;101136.38;5079166;28;1209;-43
2022/02/08 20:55:02;;;;;;;;;;;;;;;30.51;16.60;101139.13;5078966;28;817;-43
2022/02/08 20:57:34;;;;;;;;;;;;;;;29.78;17.57;101138.22;5076190;28;821;-42
2022/02/08 20:59:59;;;;;;;;;;;;;;;29.76;17.66;101138.41;5076226;28;958;-43
2022/02/08 21:02:35;;;;;;;;;;;;;;;29.73;17.81;101137.97;5080388;28;1236;-43
2022/02/08 21:05:17;;;;;;;;;;;;;;;29.70;17.72;101145.44;5072453;28;1364;-43
2022/02/08 21:07:42;;;;;;;;;;;;;;;29.74;18.03;101134.22;5073869;28;1266;-43
2022/02/08 21:10:08;;;;;;;;;;;;;;;29.88;17.92;101132.50;5074417;28;1902;-44